createdAt,value
2023-01-11T00:00:32.676Z,6.89
2023-01-11T00:03:01.006Z,7.09
2023-01-11T00:05:28.131Z,7.24
2023-01-11T00:07:55.255Z,7.11
2023-01-11T00:10:22.667Z,6.79
2023-01-11T00:12:50.014Z,7.04
2023-01-11T00:15:17.536Z,7.18
2023-01-11T00:17:44.945Z,6.97
2023-01-11T00:20:12.076Z,7.17
2023-01-11T00:22:39.224Z,7.36
2023-01-11T00:25:06.697Z,7.49
2023-01-11T00:27:33.825Z,7.62
2023-01-11T00:30:01.035Z,7.68
2023-01-11T00:32:28.831Z,7.75
2023-01-11T00:34:56.018Z,7.33
2023-01-11T00:37:23.167Z,7.56
2023-01-11T00:39:51.538Z,7.00
2023-01-11T00:42:37.215Z,7.48
2023-01-11T00:45:23.380Z,6.66
2023-01-11T00:48:04.725Z,7.37
2023-01-11T00:50:33.656Z,6.71
2023-01-11T00:53:00.917Z,7.75
2023-01-11T00:55:28.301Z,7.68
2023-01-11T00:57:55.756Z,7.35
2023-01-11T01:00:22.947Z,7.49
2023-01-11T01:02:50.412Z,7.38
2023-01-11T01:05:18.136Z,6.99
2023-01-11T01:07:45.340Z,7.33
2023-01-11T01:10:13.173Z,6.55
2023-01-11T01:12:59.011Z,7.50
2023-01-11T01:15:26.210Z,7.19
2023-01-11T01:17:55.056Z,7.29
2023-01-11T01:20:22.935Z,7.27
2023-01-11T01:22:50.260Z,7.32
2023-01-11T01:25:17.656Z,7.31
2023-01-11T01:27:44.765Z,7.43
2023-01-11T01:30:12.099Z,7.51
2023-01-11T01:32:39.908Z,7.28
2023-01-11T01:35:07.167Z,6.57
2023-01-11T01:37:34.316Z,7.41
2023-01-11T01:40:01.761Z,6.94
2023-01-11T01:42:28.897Z,6.95
2023-01-11T01:45:34.767Z,7.31
2023-01-11T01:48:02.800Z,7.20
2023-01-11T01:50:29.928Z,7.20
2023-01-11T01:52:58.981Z,6.50
2023-01-11T01:55:27.940Z,6.57
2023-01-11T01:57:55.289Z,7.11
2023-01-11T02:00:22.410Z,7.47
2023-01-11T02:02:50.199Z,7.24
2023-01-11T02:05:17.735Z,7.19
2023-01-11T02:07:45.015Z,7.04
2023-01-11T02:10:19.820Z,6.98
2023-01-11T02:13:05.080Z,7.09
2023-01-11T02:15:32.353Z,6.38
2023-01-11T02:17:59.761Z,6.56
2023-01-11T02:20:26.920Z,6.81
2023-01-11T02:23:12.547Z,6.62
2023-01-11T02:25:52.490Z,6.32
2023-01-11T02:28:38.433Z,6.60
2023-01-11T02:31:09.060Z,6.81
2023-01-11T02:33:42.889Z,7.00
2023-01-11T02:36:13.518Z,7.11
2023-01-11T02:38:46.072Z,7.19
2023-01-11T02:41:20.031Z,7.29
2023-01-11T02:44:16.297Z,7.33
2023-01-11T02:46:43.736Z,7.64
2023-01-11T02:49:18.045Z,7.67
2023-01-11T02:51:55.352Z,7.88
2023-01-11T02:54:23.296Z,8.05
2023-01-11T02:56:52.006Z,8.16
2023-01-11T02:59:20.839Z,8.62
2023-01-11T03:01:49.128Z,8.97
2023-01-11T03:04:29.972Z,8.65
2023-01-11T03:07:04.721Z,8.43
2023-01-11T03:09:35.160Z,8.77
2023-01-11T03:12:24.582Z,7.96
2023-01-11T03:14:55.123Z,8.83
2023-01-11T03:17:35.504Z,8.77
2023-01-11T03:20:10.161Z,9.03
2023-01-11T03:22:52.645Z,8.52
2023-01-11T03:25:24.704Z,8.32
2023-01-11T03:27:56.388Z,8.84
2023-01-11T03:30:23.742Z,8.88
2023-01-11T03:32:52.212Z,8.44
2023-01-11T03:35:30.548Z,8.48
2023-01-11T03:38:00.446Z,8.40
2023-01-11T03:40:28.743Z,8.35
2023-01-11T03:43:11.157Z,8.56
2023-01-11T03:45:46.634Z,8.34
2023-01-11T03:48:18.551Z,8.59
2023-01-11T03:50:46.244Z,8.55
2023-01-11T03:53:13.395Z,7.87
2023-01-11T03:55:40.961Z,8.61
2023-01-11T03:58:09.122Z,9.16
2023-01-11T04:00:36.340Z,8.69
2023-01-11T04:03:03.863Z,9.07
2023-01-11T04:05:30.998Z,9.01
2023-01-11T04:07:58.118Z,8.30
2023-01-11T04:10:25.508Z,8.48
2023-01-11T04:12:52.695Z,7.99
2023-01-11T04:15:19.963Z,8.27
2023-01-11T04:17:47.400Z,8.07
2023-01-11T04:20:14.609Z,8.29
2023-01-11T04:22:41.748Z,8.15
2023-01-11T04:25:09.995Z,8.56
2023-01-11T04:27:37.208Z,8.38
2023-01-11T04:30:04.579Z,8.69
2023-01-11T04:32:32.003Z,9.07
2023-01-11T04:34:59.180Z,9.17
2023-01-11T04:37:26.379Z,9.38
2023-01-11T04:39:53.725Z,8.93
2023-01-11T04:42:21.143Z,9.02
2023-01-11T04:44:49.343Z,9.30
2023-01-11T04:47:17.152Z,9.55
2023-01-11T04:49:44.327Z,9.44
2023-01-11T04:52:12.300Z,9.44
2023-01-11T04:54:39.924Z,8.96
2023-01-11T04:57:07.320Z,8.98
2023-01-11T04:59:34.467Z,8.84
2023-01-11T05:02:02.216Z,9.24
2023-01-11T05:04:29.570Z,9.15
2023-01-11T05:06:56.887Z,8.21
2023-01-11T05:09:24.338Z,8.18
2023-01-11T05:11:51.539Z,8.40
2023-01-11T05:14:18.723Z,8.24
2023-01-11T05:16:46.310Z,8.35
2023-01-11T05:19:13.638Z,8.12
2023-01-11T05:21:41.523Z,8.39
2023-01-11T05:24:15.632Z,7.95
2023-01-11T05:26:43.379Z,7.98
2023-01-11T05:29:12.386Z,8.38
2023-01-11T05:31:40.473Z,8.80
2023-01-11T05:34:07.899Z,8.35
2023-01-11T05:36:35.506Z,8.36
2023-01-11T05:39:03.219Z,8.26
2023-01-11T05:41:30.382Z,8.82
2023-01-11T05:44:16.354Z,8.55
2023-01-11T05:46:44.047Z,8.58
2023-01-11T05:49:12.230Z,8.63
2023-01-11T05:51:39.453Z,8.61
2023-01-11T05:54:07.443Z,8.87
2023-01-11T05:56:34.960Z,8.57
2023-01-11T05:59:04.016Z,8.95
2023-01-11T06:01:31.472Z,9.16
2023-01-11T06:03:58.844Z,8.81
2023-01-11T06:06:26.065Z,8.42
2023-01-11T06:08:53.279Z,8.68
2023-01-11T06:11:20.745Z,8.69
2023-01-11T06:13:47.954Z,8.21
2023-01-11T06:16:18.944Z,8.21
2023-01-11T06:18:47.530Z,8.33
2023-01-11T06:21:15.212Z,8.15
2023-01-11T06:23:43.973Z,8.53
2023-01-11T06:26:12.217Z,8.03
2023-01-11T06:28:39.518Z,8.60
2023-01-11T06:31:06.839Z,8.91
2023-01-11T06:33:34.476Z,9.05
2023-01-11T06:36:08.709Z,9.17
2023-01-11T06:38:36.231Z,9.19
2023-01-11T06:41:04.987Z,8.98
2023-01-11T06:43:32.240Z,9.06
2023-01-11T06:46:00.099Z,9.23
2023-01-11T06:48:27.581Z,9.08
2023-01-11T06:50:55.916Z,9.27
2023-01-11T06:53:23.848Z,9.22
2023-01-11T06:55:51.973Z,8.70
2023-01-11T06:58:19.771Z,9.01
2023-01-11T07:00:47.263Z,9.31
2023-01-11T07:03:14.508Z,10.02
2023-01-11T07:05:43.945Z,10.85
2023-01-11T07:08:11.573Z,11.87
2023-01-11T07:10:38.694Z,12.49
2023-01-11T07:13:05.999Z,13.14
2023-01-11T07:15:33.696Z,13.32
2023-01-11T07:18:01.184Z,13.37
2023-01-11T07:20:28.677Z,13.24
2023-01-11T07:22:59.505Z,13.80
2023-01-11T07:25:27.789Z,14.37
2023-01-11T07:28:01.884Z,14.55
2023-01-11T07:30:30.180Z,15.40
2023-01-11T07:32:57.754Z,15.12
2023-01-11T07:35:25.568Z,15.17
2023-01-11T07:37:54.182Z,14.70
2023-01-11T07:40:21.641Z,14.49
2023-01-11T07:43:08.344Z,14.16
2023-01-11T07:45:45.311Z,14.39
2023-01-11T07:48:13.851Z,14.24
2023-01-11T07:50:44.244Z,16.12
2023-01-11T07:53:12.547Z,16.09
2023-01-11T07:55:40.251Z,15.45
2023-01-11T07:58:08.615Z,14.99
2023-01-11T08:00:35.987Z,15.46
2023-01-11T08:03:03.734Z,16.49
2023-01-11T08:05:31.055Z,16.39
2023-01-11T08:07:58.408Z,15.84
2023-01-11T08:10:25.893Z,16.09
2023-01-11T08:13:12.088Z,15.64
2023-01-11T08:15:42.649Z,15.91
2023-01-11T08:18:11.467Z,14.77
2023-01-11T08:20:39.182Z,15.56
2023-01-11T08:23:07.082Z,15.35
2023-01-11T08:25:34.446Z,15.49
2023-01-11T08:28:02.502Z,15.30
2023-01-11T08:30:30.049Z,15.93
2023-01-11T08:32:57.791Z,15.27
2023-01-11T08:35:25.439Z,16.24
2023-01-11T08:37:52.935Z,16.80
2023-01-11T08:40:22.315Z,17.55
2023-01-11T08:42:57.019Z,17.44
2023-01-11T08:45:24.768Z,17.22
2023-01-11T08:47:52.354Z,15.96
2023-01-11T08:50:19.939Z,18.02
2023-01-11T08:52:48.527Z,16.62
2023-01-11T08:55:15.728Z,16.60
2023-01-11T08:57:43.002Z,16.78
2023-01-11T09:00:10.848Z,17.15
2023-01-11T09:02:38.049Z,16.34
2023-01-11T09:05:05.535Z,17.13
2023-01-11T09:07:32.978Z,17.39
2023-01-11T09:10:00.186Z,14.85
2023-01-11T09:12:27.758Z,16.03
2023-01-11T09:14:55.203Z,15.86
2023-01-11T09:17:22.481Z,16.06
2023-01-11T09:19:49.715Z,17.67
2023-01-11T09:22:17.358Z,18.06
2023-01-11T09:24:44.568Z,18.54
2023-01-11T09:27:12.044Z,18.14
2023-01-11T09:29:39.668Z,17.04
2023-01-11T09:32:06.974Z,17.37
2023-01-11T09:34:35.022Z,19.06
2023-01-11T09:37:07.168Z,20.32
2023-01-11T09:39:35.680Z,21.47
2023-01-11T09:42:10.605Z,20.85
2023-01-11T09:44:58.480Z,20.34
2023-01-11T09:47:37.037Z,20.08
2023-01-11T09:50:11.884Z,19.21
2023-01-11T09:52:42.327Z,17.98
2023-01-11T09:55:15.617Z,18.04
2023-01-11T09:57:47.659Z,18.05
2023-01-11T10:00:21.514Z,19.09
2023-01-11T10:03:01.338Z,19.56
2023-01-11T10:05:37.921Z,19.79
2023-01-11T10:14:01.399Z,22.39
2023-01-11T10:18:38.492Z,24.84
2023-01-11T10:20:13.094Z,25.71
2023-01-11T10:22:43.720Z,26.01
2023-01-11T10:25:18.825Z,26.38
2023-01-11T10:28:00.857Z,26.27
2023-01-11T10:30:41.828Z,25.67
2023-01-11T10:33:43.379Z,26.07
2023-01-11T10:36:38.004Z,26.50
2023-01-11T10:39:35.852Z,25.57
2023-01-11T10:42:29.770Z,25.41
2023-01-11T10:45:02.615Z,25.62
2023-01-11T10:47:50.333Z,25.45
2023-01-11T10:50:17.672Z,26.32
2023-01-11T10:53:08.560Z,25.90
2023-01-11T10:55:43.237Z,23.82
2023-01-11T10:58:11.486Z,23.44
2023-01-11T11:01:04.123Z,24.12
2023-01-11T11:03:38.866Z,24.42
2023-01-11T11:06:08.976Z,24.32
2023-01-11T11:08:46.649Z,25.38
2023-01-11T11:11:16.979Z,26.18
2023-01-11T11:14:03.336Z,25.53
2023-01-11T11:16:48.740Z,24.30
2023-01-11T11:19:17.019Z,24.36
2023-01-11T11:21:44.244Z,23.63
2023-01-11T11:24:20.781Z,23.53
2023-01-11T11:26:49.891Z,23.36
2023-01-11T11:29:21.157Z,23.47
2023-01-11T11:31:48.622Z,23.42
2023-01-11T11:34:20.188Z,22.30
2023-01-11T11:36:48.204Z,21.38
2023-01-11T11:39:19.771Z,20.55
2023-01-11T11:41:50.863Z,20.31
2023-01-11T11:44:25.990Z,18.70
2023-01-11T11:47:16.656Z,18.34
2023-01-11T11:49:44.343Z,17.75
2023-01-11T11:52:14.845Z,17.55
2023-01-11T11:54:43.402Z,17.39
2023-01-11T11:57:13.864Z,16.83
2023-01-11T11:59:43.821Z,16.59
2023-01-11T12:02:18.180Z,16.33
2023-01-11T12:04:49.352Z,15.93
2023-01-11T12:07:18.140Z,15.55
2023-01-11T12:09:49.343Z,14.94
2023-01-11T12:12:17.576Z,14.52
2023-01-11T12:14:45.666Z,14.74
2023-01-11T12:17:31.884Z,14.83
2023-01-11T12:19:59.348Z,15.07
2023-01-11T12:22:30.583Z,14.82
2023-01-11T12:25:03.999Z,14.98
2023-01-11T12:27:37.494Z,14.46
2023-01-11T12:30:20.310Z,14.75
2023-01-11T12:33:01.195Z,14.27
2023-01-11T12:35:35.203Z,14.86
2023-01-11T12:38:02.612Z,14.24
2023-01-11T12:40:29.758Z,13.79
2023-01-11T12:43:02.864Z,14.07
2023-01-11T12:45:40.194Z,14.10
2023-01-11T12:48:16.280Z,13.60
2023-01-11T12:51:02.157Z,14.12
2023-01-11T12:53:40.061Z,14.49
2023-01-11T12:56:37.124Z,14.34
2023-01-11T12:59:22.811Z,14.10
2023-01-11T13:01:54.700Z,14.05
2023-01-11T13:04:40.802Z,13.99
2023-01-11T13:07:17.360Z,14.19
2023-01-11T13:09:53.630Z,13.99
2023-01-11T13:12:24.167Z,14.18
2023-01-11T13:15:09.928Z,14.21
2023-01-11T13:17:38.615Z,14.06
2023-01-11T13:20:18.048Z,14.22
2023-01-11T13:22:47.110Z,14.72
2023-01-11T13:25:19.137Z,14.68
2023-01-11T13:27:46.587Z,14.61
2023-01-11T13:30:14.053Z,14.77
2023-01-11T13:32:43.207Z,14.98
2023-01-11T13:35:17.863Z,15.07
2023-01-11T13:37:53.451Z,14.95
2023-01-11T13:40:28.830Z,15.11
2023-01-11T13:43:06.988Z,14.81
2023-01-11T13:45:54.881Z,14.81
2023-01-11T13:48:24.452Z,14.95
2023-01-11T13:50:58.713Z,15.01
2023-01-11T13:53:28.928Z,15.24
2023-01-11T13:55:57.628Z,14.68
2023-01-11T13:58:30.054Z,14.98
2023-01-11T14:00:57.584Z,15.03
2023-01-11T14:03:29.294Z,14.90
2023-01-11T14:05:59.630Z,14.88
2023-01-11T14:08:39.075Z,14.94
2023-01-11T14:11:09.140Z,14.76
2023-01-11T14:14:18.360Z,14.16
2023-01-11T14:17:00.761Z,14.51
2023-01-11T14:19:33.431Z,14.62
2023-01-11T14:22:24.540Z,14.68
2023-01-11T14:25:12.241Z,14.44
2023-01-11T14:27:59.738Z,14.25
2023-01-11T14:30:46.208Z,14.49
2023-01-11T14:33:25.784Z,14.41
2023-01-11T14:36:04.376Z,14.52
2023-01-11T14:38:47.773Z,14.54
2023-01-11T14:41:15.239Z,14.47
2023-01-11T14:44:00.831Z,14.52
2023-01-11T14:46:31.340Z,14.54
2023-01-11T14:49:20.723Z,14.62
2023-01-11T14:51:58.932Z,14.48
2023-01-11T14:54:27.433Z,14.49
2023-01-11T14:56:55.845Z,14.13
2023-01-11T14:59:24.824Z,14.07
2023-01-11T15:02:04.456Z,14.34
2023-01-11T15:04:33.283Z,14.42
2023-01-11T15:07:00.736Z,14.38
2023-01-11T15:09:57.726Z,14.37
2023-01-11T15:12:25.888Z,14.38
2023-01-11T15:14:56.760Z,14.24
2023-01-11T15:17:43.757Z,14.25
2023-01-11T15:20:12.164Z,14.18
2023-01-11T15:22:39.329Z,14.12
2023-01-11T15:25:22.031Z,13.98
2023-01-11T15:27:50.303Z,13.81
2023-01-11T15:30:30.222Z,13.49
2023-01-11T15:33:16.668Z,13.51
2023-01-11T15:35:56.236Z,13.51
2023-01-11T15:38:25.408Z,13.56
2023-01-11T15:40:52.605Z,13.60
2023-01-11T15:43:46.341Z,13.44
2023-01-11T15:46:52.480Z,13.46
2023-01-11T15:49:39.894Z,13.53
2023-01-11T15:52:07.333Z,13.67
2023-01-11T15:54:41.943Z,13.78
2023-01-11T15:57:09.318Z,13.57
2023-01-11T16:00:02.642Z,13.71
2023-01-11T16:02:45.670Z,13.38
2023-01-11T16:05:15.037Z,13.19
2023-01-11T16:07:43.672Z,12.81
2023-01-11T16:10:35.820Z,12.85
2023-01-11T16:13:03.264Z,12.99
2023-01-11T16:15:38.545Z,12.88
2023-01-11T16:18:14.634Z,12.90
2023-01-11T16:20:42.910Z,12.89
2023-01-11T16:23:13.430Z,12.94
2023-01-11T16:25:40.945Z,12.59
2023-01-11T16:28:08.273Z,12.75
2023-01-11T16:30:35.880Z,12.74
2023-01-11T16:33:29.449Z,12.94
2023-01-11T16:36:03.757Z,12.93
2023-01-11T16:38:31.027Z,12.94
2023-01-11T16:40:58.661Z,12.84
2023-01-11T16:43:26.702Z,12.26
2023-01-11T16:45:54.422Z,12.59
2023-01-11T16:48:21.859Z,12.62
2023-01-11T16:51:02.236Z,12.49
2023-01-11T16:53:30.429Z,12.43
2023-01-11T16:56:03.004Z,12.40
2023-01-11T16:58:30.973Z,12.38
2023-01-11T17:00:58.970Z,12.37
2023-01-11T17:03:27.601Z,12.37
2023-01-11T17:05:57.795Z,12.19
2023-01-11T17:08:26.465Z,12.29
2023-01-11T17:10:54.682Z,12.07
2023-01-11T17:13:40.729Z,12.09
2023-01-11T17:16:11.800Z,12.03
2023-01-11T17:18:42.841Z,12.22
2023-01-11T17:21:20.380Z,12.17
2023-01-11T17:23:48.262Z,12.09
2023-01-11T17:26:22.870Z,11.92
2023-01-11T17:28:51.635Z,12.06
2023-01-11T17:31:23.974Z,11.85
2023-01-11T17:34:02.269Z,11.81
2023-01-11T17:36:29.668Z,11.82
2023-01-11T17:38:58.034Z,11.97
2023-01-11T17:41:47.219Z,11.70
2023-01-11T17:44:40.286Z,11.66
2023-01-11T17:47:08.561Z,11.71
2023-01-11T17:49:36.172Z,11.74
2023-01-11T17:52:10.218Z,12.02
2023-01-11T17:54:37.754Z,11.88
2023-01-11T17:57:04.939Z,11.89
2023-01-11T17:59:32.288Z,11.73
2023-01-11T18:02:13.547Z,11.66
2023-01-11T18:04:41.193Z,11.40
2023-01-11T18:07:17.937Z,11.35
2023-01-11T18:09:49.156Z,11.21
2023-01-11T18:12:29.509Z,11.01
2023-01-11T18:14:57.821Z,10.93
2023-01-11T18:17:37.567Z,10.91
2023-01-11T18:20:14.315Z,11.05
2023-01-11T18:22:53.699Z,11.05
2023-01-11T18:25:24.771Z,10.84
2023-01-11T18:27:52.149Z,10.63
2023-01-11T18:30:35.621Z,10.66
2023-01-11T18:33:03.803Z,10.80
2023-01-11T18:35:31.041Z,10.75
2023-01-11T18:37:58.243Z,10.65
2023-01-11T18:40:25.831Z,10.71
2023-01-11T18:42:53.329Z,10.64
2023-01-11T18:45:21.898Z,10.53
2023-01-11T18:47:49.363Z,10.38
2023-01-11T18:50:19.466Z,10.35
2023-01-11T18:52:47.004Z,10.04
2023-01-11T18:55:14.596Z,9.96
2023-01-11T18:57:42.469Z,9.80
2023-01-11T19:00:11.234Z,10.19
2023-01-11T19:02:43.002Z,10.33
2023-01-11T19:05:14.241Z,10.43
2023-01-11T19:07:42.204Z,10.04
2023-01-11T19:10:13.284Z,10.16
2023-01-11T19:12:41.218Z,10.07
2023-01-11T19:15:08.861Z,9.91
2023-01-11T19:17:36.274Z,10.02
2023-01-11T19:20:03.841Z,10.33
2023-01-11T19:22:32.492Z,10.20
2023-01-11T19:24:59.650Z,10.26
2023-01-11T19:27:26.904Z,10.26
2023-01-11T19:29:57.595Z,10.08
2023-01-11T19:32:25.709Z,10.03
2023-01-11T19:34:53.362Z,10.15
2023-01-11T19:37:21.112Z,10.30
2023-01-11T19:39:48.457Z,10.19
2023-01-11T19:42:15.900Z,10.14
2023-01-11T19:44:43.778Z,10.22
2023-01-11T19:47:13.179Z,10.32
2023-01-11T19:49:41.469Z,10.23
2023-01-11T19:52:13.402Z,10.18
2023-01-11T19:54:44.721Z,10.16
2023-01-11T19:57:14.575Z,10.06
2023-01-11T19:59:42.168Z,10.02
2023-01-11T20:02:10.910Z,10.16
2023-01-11T20:04:39.236Z,10.12
2023-01-11T20:07:06.984Z,9.87
2023-01-11T20:09:37.462Z,9.97
2023-01-11T20:12:05.782Z,9.87
2023-01-11T20:14:33.917Z,9.81
2023-01-11T20:17:01.242Z,9.97
2023-01-11T20:19:28.721Z,9.86
2023-01-11T20:21:56.543Z,9.71
2023-01-11T20:24:30.380Z,9.50
2023-01-11T20:26:58.650Z,9.67
2023-01-11T20:29:25.935Z,9.68
2023-01-11T20:31:53.384Z,9.66
2023-01-11T20:34:21.364Z,9.57
2023-01-11T20:36:49.058Z,9.49
2023-01-11T20:39:17.470Z,9.24
2023-01-11T20:41:48.010Z,9.03
2023-01-11T20:44:16.159Z,8.94
2023-01-11T20:46:45.147Z,9.27
2023-01-11T20:49:14.011Z,9.34
2023-01-11T20:51:41.457Z,9.19
2023-01-11T20:54:09.203Z,9.25
2023-01-11T20:56:38.465Z,9.35
2023-01-11T20:59:06.885Z,8.97
2023-01-11T21:01:34.272Z,9.14
2023-01-11T21:04:02.827Z,8.92
2023-01-11T21:06:30.498Z,8.79
2023-01-11T21:08:58.584Z,8.85
2023-01-11T21:11:26.101Z,9.04
2023-01-11T21:13:54.257Z,8.82
2023-01-11T21:16:24.339Z,8.85
2023-01-11T21:18:55.819Z,8.91
2023-01-11T21:21:23.184Z,8.53
2023-01-11T21:23:53.108Z,8.88
2023-01-11T21:26:20.669Z,8.98
2023-01-11T21:29:14.160Z,9.02
2023-01-11T21:31:41.963Z,9.01
2023-01-11T21:34:10.386Z,9.07
2023-01-11T21:36:37.731Z,9.07
2023-01-11T21:39:05.162Z,9.08
2023-01-11T21:41:51.858Z,8.94
2023-01-11T21:44:19.836Z,8.78
2023-01-11T21:46:47.107Z,8.68
2023-01-11T21:49:14.359Z,8.67
2023-01-11T21:51:42.110Z,8.89
2023-01-11T21:54:10.619Z,8.69
2023-01-11T21:56:38.241Z,8.89
2023-01-11T21:59:05.757Z,8.80
2023-01-11T22:01:32.934Z,8.52
2023-01-11T22:04:04.198Z,8.73
2023-01-11T22:06:31.418Z,9.08
2023-01-11T22:08:58.780Z,8.81
2023-01-11T22:11:26.254Z,9.05
2023-01-11T22:13:53.433Z,8.91
2023-01-11T22:16:21.603Z,8.93
2023-01-11T22:18:49.097Z,8.53
2023-01-11T22:21:17.914Z,8.59
2023-01-11T22:23:45.985Z,8.98
2023-01-11T22:26:17.764Z,9.00
2023-01-11T22:29:04.237Z,8.89
2023-01-11T22:31:31.959Z,8.86
2023-01-11T22:33:59.374Z,8.90
2023-01-11T22:36:27.184Z,8.68
2023-01-11T22:38:55.215Z,8.52
2023-01-11T22:41:23.003Z,8.67
2023-01-11T22:43:50.214Z,8.35
2023-01-11T22:46:18.667Z,8.70
2023-01-11T22:48:47.145Z,8.38
2023-01-11T22:51:15.286Z,8.43
2023-01-11T22:53:43.748Z,8.40
2023-01-11T22:56:11.439Z,8.49
2023-01-11T22:58:38.758Z,8.55
2023-01-11T23:01:22.522Z,8.44
2023-01-11T23:03:50.181Z,8.54
2023-01-11T23:06:18.875Z,8.57
2023-01-11T23:08:46.310Z,8.54
2023-01-11T23:11:15.652Z,8.68
2023-01-11T23:13:52.453Z,8.72
2023-01-11T23:16:19.925Z,8.62
2023-01-11T23:18:48.385Z,8.28
2023-01-11T23:21:16.600Z,8.13
2023-01-11T23:23:43.792Z,8.42
2023-01-11T23:26:17.864Z,8.59
2023-01-11T23:28:45.768Z,8.52
2023-01-11T23:31:17.257Z,8.58
2023-01-11T23:33:54.940Z,8.80
2023-01-11T23:36:26.337Z,8.77
2023-01-11T23:38:53.672Z,8.85
2023-01-11T23:41:40.058Z,8.79
2023-01-11T23:44:09.252Z,8.84
2023-01-11T23:46:55.560Z,9.04
2023-01-11T23:49:24.731Z,9.26
2023-01-11T23:51:51.982Z,9.22
2023-01-11T23:54:19.417Z,9.16
2023-01-11T23:56:46.958Z,9.19
2023-01-11T23:59:14.103Z,9.14
